Time;durP1;ratioP1;P1;durP2;ratioP2;P2;SDS_P1;SDS_P2;PMS_P1;PMS_P2;Temp;Humidity;BMP_temperature;BMP_pressure;BME280_temperature;BME280_humidity;BME280_pressure;Samples;Min_cycle;Max_cycle;Signal;HPM_P1;HPM_P2
2022/09/23 00:01:03;;;;;;;;;2.00;2.00;;;;;;;;5005360;28;10623;-85
2022/09/23 00:03:33;;;;;;;;;2.00;2.00;;;;;;;;5005627;28;10959;-85
2022/09/23 00:06:01;;;;;;;;;2.00;2.00;;;;;;;;5001507;28;10776;-81
2022/09/23 00:08:28;;;;;;;;;4.00;4.00;;;;;;;;5005366;28;10737;-83
2022/09/23 00:10:56;;;;;;;;;1.00;1.00;;;;;;;;5006995;28;10903;-84
2022/09/23 00:13:24;;;;;;;;;1.75;1.75;;;;;;;;5004984;28;10690;-83
2022/09/23 00:15:52;;;;;;;;;3.00;3.00;;;;;;;;5006533;28;10711;-83
2022/09/23 00:18:19;;;;;;;;;4.50;3.00;;;;;;;;5003060;28;10782;-84
2022/09/23 00:20:48;;;;;;;;;4.00;4.00;;;;;;;;5006189;28;10794;-83
2022/09/23 00:23:15;;;;;;;;;3.00;3.00;;;;;;;;4987644;28;10903;-82
2022/09/23 00:25:43;;;;;;;;;2.00;2.00;;;;;;;;5004798;28;11540;-83
2022/09/23 00:28:10;;;;;;;;;2.00;2.00;;;;;;;;5006873;28;10691;-83
2022/09/23 00:30:40;;;;;;;;;3.50;3.50;;;;;;;;5004443;28;10508;-84
2022/09/23 00:33:07;;;;;;;;;3.00;3.00;;;;;;;;5005640;28;10725;-83
2022/09/23 00:35:34;;;;;;;;;4.00;2.75;;;;;;;;5003807;28;10738;-82
2022/09/23 00:38:03;;;;;;;;;7.00;4.00;;;;;;;;5005988;28;10710;-82
2022/09/23 00:40:31;;;;;;;;;2.50;2.50;;;;;;;;5004970;28;11601;-83
2022/09/23 00:42:58;;;;;;;;;4.00;2.75;;;;;;;;5004962;28;10911;-83
2022/09/23 00:45:26;;;;;;;;;3.50;3.50;;;;;;;;5006241;28;10886;-85
2022/09/23 00:47:56;;;;;;;;;3.00;3.00;;;;;;;;5002628;28;11028;-82
2022/09/23 00:50:29;;;;;;;;;2.00;2.00;;;;;;;;5006091;28;10778;-81
2022/09/23 00:52:59;;;;;;;;;3.50;3.50;;;;;;;;5004184;28;10724;-82
2022/09/23 00:55:32;;;;;;;;;2.50;2.50;;;;;;;;5005528;28;10805;-82
2022/09/23 00:58:03;;;;;;;;;3.00;3.00;;;;;;;;5005800;28;10730;-82
2022/09/23 01:00:30;;;;;;;;;6.50;4.00;;;;;;;;5004243;28;10810;-81
2022/09/23 01:02:58;;;;;;;;;2.50;2.50;;;;;;;;5005417;28;10910;-83
2022/09/23 01:05:26;;;;;;;;;3.25;3.25;;;;;;;;5004980;28;10920;-83
2022/09/23 01:07:54;;;;;;;;;2.75;2.75;;;;;;;;5005564;28;10921;-84
2022/09/23 01:10:22;;;;;;;;;1.75;1.75;;;;;;;;5004197;28;10885;-85
2022/09/23 01:13:15;;;;;;;;;2.75;2.25;;;;;;;;5006282;28;11589;-82
2022/09/23 01:15:48;;;;;;;;;5.00;5.00;;;;;;;;5004510;28;11637;-84
2022/09/23 01:18:26;;;;;;;;;3.50;3.50;;;;;;;;5004156;28;10994;-83
2022/09/23 01:21:15;;;;;;;;;5.00;3.25;;;;;;;;4997516;28;11133;-83
2022/09/23 01:24:10;;;;;;;;;5.50;4.00;;;;;;;;5003748;28;11024;-83
2022/09/23 01:26:59;;;;;;;;;3.75;3.75;;;;;;;;5004368;28;10945;-83
2022/09/23 01:29:56;;;;;;;;;4.00;4.00;;;;;;;;5002726;28;10937;-83
2022/09/23 01:32:39;;;;;;;;;2.75;2.75;;;;;;;;4983230;28;10857;-83
2022/09/23 01:35:13;;;;;;;;;3.25;3.25;;;;;;;;5003994;28;11031;-82
2022/09/23 01:37:47;;;;;;;;;4.00;2.25;;;;;;;;5003412;28;11069;-84
2022/09/23 01:40:19;;;;;;;;;3.50;3.50;;;;;;;;5003941;28;11093;-83
2022/09/23 01:42:51;;;;;;;;;4.00;4.00;;;;;;;;5005233;28;11009;-85
2022/09/23 01:45:22;;;;;;;;;3.50;3.50;;;;;;;;5000170;28;11029;-84
2022/09/23 01:47:54;;;;;;;;;3.00;3.00;;;;;;;;5002903;28;11164;-83
2022/09/23 01:53:13;;;;;;;;;3.00;3.00;;;;;;;;5003862;28;10986;-83
2022/09/23 01:55:42;;;;;;;;;3.00;3.00;;;;;;;;5004448;28;11091;-84
2022/09/23 01:58:14;;;;;;;;;2.75;2.75;;;;;;;;4997873;28;11141;-82
2022/09/23 02:00:44;;;;;;;;;3.00;3.00;;;;;;;;5004673;28;11126;-82
2022/09/23 02:03:17;;;;;;;;;3.00;3.00;;;;;;;;5003812;28;11147;-84
2022/09/23 02:05:47;;;;;;;;;2.00;2.00;;;;;;;;4998901;28;11151;-84
2022/09/23 02:08:18;;;;;;;;;3.00;3.00;;;;;;;;4999364;28;11204;-82
2022/09/23 02:10:49;;;;;;;;;2.00;2.00;;;;;;;;5001967;28;11089;-83
2022/09/23 02:13:27;;;;;;;;;3.00;3.00;;;;;;;;5004431;28;11053;-84
2022/09/23 02:15:57;;;;;;;;;3.00;3.00;;;;;;;;5003263;28;11009;-84
2022/09/23 02:18:28;;;;;;;;;1.75;1.75;;;;;;;;5002333;28;11253;-84
2022/09/23 02:20:59;;;;;;;;;3.75;3.00;;;;;;;;5004378;28;10987;-84
2022/09/23 02:23:30;;;;;;;;;2.25;2.25;;;;;;;;5003540;28;11033;-84
2022/09/23 02:26:06;;;;;;;;;3.00;3.00;;;;;;;;5004134;28;11013;-83
2022/09/23 02:28:37;;;;;;;;;0.00;0.00;;;;;;;;4993794;28;11178;-83
2022/09/23 02:31:07;;;;;;;;;2.00;2.00;;;;;;;;5002878;28;11004;-83
2022/09/23 02:33:39;;;;;;;;;3.00;3.00;;;;;;;;5003459;28;10982;-84
2022/09/23 02:36:10;;;;;;;;;2.25;2.25;;;;;;;;5003892;28;11112;-82
2022/09/23 02:38:40;;;;;;;;;3.00;3.00;;;;;;;;5004529;28;11262;-82
2022/09/23 02:41:11;;;;;;;;;6.50;4.00;;;;;;;;5002617;28;11093;-82
2022/09/23 02:43:45;;;;;;;;;3.25;3.25;;;;;;;;5002252;28;11087;-83
2022/09/23 02:46:13;;;;;;;;;2.00;2.00;;;;;;;;5003386;28;11001;-83
2022/09/23 02:48:44;;;;;;;;;4.50;3.25;;;;;;;;5003632;28;11025;-82
2022/09/23 02:51:11;;;;;;;;;2.50;2.50;;;;;;;;5004414;28;11161;-82
2022/09/23 02:53:39;;;;;;;;;2.25;2.25;;;;;;;;5003877;28;11015;-82
2022/09/23 02:56:15;;;;;;;;;4.00;4.00;;;;;;;;5003050;28;11048;-80
2022/09/23 02:58:42;;;;;;;;;3.75;3.75;;;;;;;;5003963;28;10995;-84
2022/09/23 03:01:18;;;;;;;;;2.00;2.00;;;;;;;;5007317;28;11034;-83
2022/09/23 03:03:52;;;;;;;;;5.50;3.00;;;;;;;;5005969;28;11872;-86
2022/09/23 03:06:27;;;;;;;;;3.50;3.50;;;;;;;;5003471;28;11119;-84
2022/09/23 03:08:59;;;;;;;;;4.00;3.00;;;;;;;;5004863;28;11019;-86
2022/09/23 03:11:27;;;;;;;;;2.50;2.50;;;;;;;;5003183;28;11010;-85
2022/09/23 03:14:03;;;;;;;;;1.50;1.50;;;;;;;;4989321;28;11163;-84
2022/09/23 03:16:37;;;;;;;;;6.50;4.75;;;;;;;;5003449;28;11132;-81
2022/09/23 03:19:24;;;;;;;;;2.25;2.25;;;;;;;;5007327;28;11170;-84
2022/09/23 03:21:59;;;;;;;;;4.25;4.25;;;;;;;;5004948;28;11073;-87
2022/09/23 03:24:30;;;;;;;;;4.50;4.25;;;;;;;;5003998;28;11155;-86
2022/09/23 03:26:59;;;;;;;;;3.00;3.00;;;;;;;;5008236;28;11116;-86
2022/09/23 03:29:27;;;;;;;;;2.00;2.00;;;;;;;;5007455;28;11165;-87
2022/09/23 03:31:56;;;;;;;;;2.25;2.25;;;;;;;;5006493;28;10884;-80
2022/09/23 03:34:28;;;;;;;;;4.00;2.25;;;;;;;;5006214;28;11040;-80
2022/09/23 03:37:00;;;;;;;;;4.50;3.50;;;;;;;;5006045;28;11213;-84
2022/09/23 03:39:33;;;;;;;;;4.50;4.50;;;;;;;;5006591;28;10946;-83
2022/09/23 03:42:04;;;;;;;;;5.50;5.00;;;;;;;;5005771;28;11116;-80
2022/09/23 03:44:31;;;;;;;;;8.50;6.00;;;;;;;;5007691;28;11163;-86
2022/09/23 03:47:03;;;;;;;;;8.50;6.50;;;;;;;;5004749;28;11099;-81
2022/09/23 03:49:36;;;;;;;;;6.75;4.50;;;;;;;;5006366;28;11054;-86
2022/09/23 03:52:03;;;;;;;;;8.00;5.00;;;;;;;;5007393;28;11088;-87
2022/09/23 03:54:31;;;;;;;;;6.00;6.00;;;;;;;;5006432;28;11230;-84
2022/09/23 03:56:59;;;;;;;;;5.50;5.50;;;;;;;;5010401;28;10987;-84
2022/09/23 03:59:26;;;;;;;;;7.00;7.00;;;;;;;;5009411;28;11201;-84
2022/09/23 04:01:54;;;;;;;;;4.25;4.25;;;;;;;;5005380;28;10942;-85
2022/09/23 04:04:22;;;;;;;;;8.00;8.00;;;;;;;;4997675;28;11060;-84
2022/09/23 04:06:50;;;;;;;;;7.00;4.75;;;;;;;;5006800;28;11181;-84
2022/09/23 04:09:17;;;;;;;;;8.50;8.00;;;;;;;;5006408;28;11003;-86
2022/09/23 04:11:45;;;;;;;;;7.00;7.00;;;;;;;;5006858;28;11203;-86
2022/09/23 04:14:12;;;;;;;;;8.75;8.75;;;;;;;;5006843;28;11079;-84
2022/09/23 04:16:39;;;;;;;;;7.25;5.75;;;;;;;;5005966;28;11244;-85
2022/09/23 04:19:07;;;;;;;;;8.00;8.00;;;;;;;;5007031;28;10933;-84
2022/09/23 04:21:34;;;;;;;;;8.00;8.00;;;;;;;;5004745;28;12060;-82
2022/09/23 04:24:04;;;;;;;;;7.50;7.50;;;;;;;;5005637;28;11119;-89
2022/09/23 04:26:31;;;;;;;;;9.00;8.50;;;;;;;;5006251;28;11133;-89
2022/09/23 04:28:58;;;;;;;;;8.25;8.00;;;;;;;;5006642;28;11284;-87
2022/09/23 04:31:27;;;;;;;;;4.75;4.75;;;;;;;;5003461;28;11109;-88
2022/09/23 04:33:55;;;;;;;;;4.75;4.75;;;;;;;;5005338;28;11010;-89
2022/09/23 04:36:22;;;;;;;;;4.75;4.75;;;;;;;;5006346;28;11020;-87
2022/09/23 04:38:50;;;;;;;;;6.00;6.00;;;;;;;;5003989;28;11140;-87
2022/09/23 04:41:19;;;;;;;;;5.00;5.00;;;;;;;;5006050;28;11126;-86
2022/09/23 04:43:47;;;;;;;;;5.00;5.00;;;;;;;;5005709;28;10952;-88
2022/09/23 04:46:15;;;;;;;;;4.25;4.00;;;;;;;;5004932;28;11097;-87
2022/09/23 04:48:43;;;;;;;;;6.50;6.50;;;;;;;;5005087;28;11082;-86
2022/09/23 04:51:12;;;;;;;;;5.00;5.00;;;;;;;;5003633;28;11176;-78
2022/09/23 04:53:41;;;;;;;;;7.00;4.75;;;;;;;;5004489;28;11044;-77
2022/09/23 04:56:10;;;;;;;;;7.00;7.00;;;;;;;;5003208;28;10942;-83
2022/09/23 04:58:40;;;;;;;;;5.00;5.00;;;;;;;;5004526;28;11083;-82
2022/09/23 05:01:11;;;;;;;;;6.00;6.00;;;;;;;;5005415;28;11021;-84
2022/09/23 05:03:39;;;;;;;;;5.50;2.25;;;;;;;;5007708;28;11009;-83
2022/09/23 05:06:07;;;;;;;;;4.50;4.50;;;;;;;;5006421;28;11186;-83
2022/09/23 05:08:35;;;;;;;;;6.50;3.75;;;;;;;;5000057;28;11123;-80
2022/09/23 05:11:04;;;;;;;;;3.50;3.50;;;;;;;;5002551;28;10944;-79
2022/09/23 05:13:31;;;;;;;;;3.25;3.25;;;;;;;;5002149;28;11138;-80
2022/09/23 05:16:02;;;;;;;;;5.00;5.00;;;;;;;;5003299;28;11102;-79
2022/09/23 05:18:31;;;;;;;;;4.50;4.50;;;;;;;;5001821;28;11975;-80
2022/09/23 05:20:58;;;;;;;;;4.25;4.25;;;;;;;;5002548;28;11078;-81
2022/09/23 05:23:27;;;;;;;;;4.75;3.00;;;;;;;;5002342;28;10947;-81
2022/09/23 05:25:57;;;;;;;;;4.00;4.00;;;;;;;;5002232;28;10932;-80
2022/09/23 05:28:25;;;;;;;;;4.00;4.00;;;;;;;;5003183;28;10911;-81
2022/09/23 05:30:52;;;;;;;;;4.25;4.25;;;;;;;;4998051;28;11153;-80
2022/09/23 05:33:21;;;;;;;;;6.00;6.00;;;;;;;;5002692;28;10989;-80
2022/09/23 05:35:49;;;;;;;;;5.25;5.25;;;;;;;;5000947;28;11099;-81
2022/09/23 05:38:16;;;;;;;;;4.00;4.00;;;;;;;;5001364;28;11027;-80
2022/09/23 05:40:43;;;;;;;;;4.50;4.50;;;;;;;;5001904;28;11018;-81
2022/09/23 05:43:11;;;;;;;;;5.00;5.00;;;;;;;;5002096;28;11037;-83
2022/09/23 05:45:38;;;;;;;;;3.75;3.75;;;;;;;;5003062;28;11167;-79
2022/09/23 05:48:05;;;;;;;;;5.00;5.00;;;;;;;;5000151;28;11208;-78
2022/09/23 05:50:34;;;;;;;;;4.00;4.00;;;;;;;;5001172;28;11014;-76
2022/09/23 05:53:01;;;;;;;;;3.00;3.00;;;;;;;;5000313;28;11147;-75
2022/09/23 05:55:30;;;;;;;;;3.25;3.25;;;;;;;;5001917;28;11750;-77
2022/09/23 05:57:57;;;;;;;;;4.25;4.00;;;;;;;;5003213;28;11097;-77
2022/09/23 06:00:25;;;;;;;;;3.50;3.50;;;;;;;;5003041;28;11009;-76
2022/09/23 06:02:52;;;;;;;;;5.00;5.00;;;;;;;;5003624;28;10968;-77
2022/09/23 06:05:20;;;;;;;;;4.00;4.00;;;;;;;;5002407;28;11005;-76
2022/09/23 06:07:49;;;;;;;;;5.00;5.00;;;;;;;;5004134;28;11112;-77
2022/09/23 06:10:16;;;;;;;;;5.00;5.00;;;;;;;;5002723;28;11232;-76
2022/09/23 06:12:43;;;;;;;;;4.50;4.50;;;;;;;;4999784;28;11036;-77
2022/09/23 06:15:11;;;;;;;;;5.50;5.50;;;;;;;;5002746;28;11168;-76
2022/09/23 06:17:39;;;;;;;;;6.00;4.50;;;;;;;;5002737;28;11074;-76
2022/09/23 06:20:07;;;;;;;;;5.00;5.00;;;;;;;;5002231;28;11178;-77
2022/09/23 06:22:34;;;;;;;;;5.50;5.50;;;;;;;;5001787;28;11042;-75
2022/09/23 06:25:03;;;;;;;;;5.50;5.50;;;;;;;;5002552;28;11086;-76
2022/09/23 06:27:30;;;;;;;;;7.00;7.00;;;;;;;;5000810;28;11006;-76
2022/09/23 06:29:58;;;;;;;;;5.00;5.00;;;;;;;;5002792;28;11111;-77
2022/09/23 06:32:26;;;;;;;;;4.50;4.50;;;;;;;;5000261;28;10873;-77
2022/09/23 06:34:55;;;;;;;;;4.75;4.75;;;;;;;;5001764;28;10907;-76
2022/09/23 06:37:23;;;;;;;;;5.50;5.00;;;;;;;;4998165;28;11059;-74
2022/09/23 06:39:53;;;;;;;;;7.75;5.00;;;;;;;;5001658;28;11055;-73
2022/09/23 06:42:22;;;;;;;;;5.75;5.75;;;;;;;;4999712;28;10838;-74
2022/09/23 06:44:49;;;;;;;;;6.00;6.00;;;;;;;;4999332;28;11542;-74
2022/09/23 06:47:16;;;;;;;;;6.75;4.75;;;;;;;;5001716;28;10946;-73
2022/09/23 06:49:43;;;;;;;;;5.00;5.00;;;;;;;;5005378;28;11581;-74
2022/09/23 06:52:11;;;;;;;;;8.50;5.50;;;;;;;;5005915;28;10871;-74
2022/09/23 06:54:38;;;;;;;;;6.25;6.25;;;;;;;;5005000;28;10644;-77
2022/09/23 06:57:05;;;;;;;;;9.25;7.75;;;;;;;;5005445;28;10743;-73
2022/09/23 06:59:34;;;;;;;;;9.50;9.50;;;;;;;;5005610;28;11445;-71
2022/09/23 07:02:02;;;;;;;;;7.50;7.00;;;;;;;;5002085;28;10832;-73
2022/09/23 07:07:13;;;;;;;;;9.00;6.50;;;;;;;;5003414;28;10585;-74
2022/09/23 07:09:40;;;;;;;;;6.50;4.75;;;;;;;;5005974;28;10706;-73
2022/09/23 07:12:08;;;;;;;;;8.25;6.00;;;;;;;;5003386;28;10455;-72
2022/09/23 07:14:36;;;;;;;;;6.25;6.25;;;;;;;;5006535;28;10340;-73
2022/09/23 07:17:04;;;;;;;;;5.00;5.00;;;;;;;;5006797;28;10233;-73
2022/09/23 07:19:32;;;;;;;;;7.00;7.00;;;;;;;;5003712;28;10339;-72
2022/09/23 07:21:59;;;;;;;;;5.50;5.50;;;;;;;;5005966;28;10046;-74
2022/09/23 07:24:27;;;;;;;;;5.00;5.00;;;;;;;;5004798;28;10179;-75
2022/09/23 07:26:54;;;;;;;;;5.50;5.50;;;;;;;;5004378;28;10044;-75
2022/09/23 07:29:22;;;;;;;;;8.25;8.25;;;;;;;;5005878;28;9991;-75
2022/09/23 07:31:50;;;;;;;;;8.50;6.00;;;;;;;;5006244;28;9934;-75
2022/09/23 07:34:18;;;;;;;;;9.75;8.25;;;;;;;;5006599;28;9790;-75
2022/09/23 07:36:45;;;;;;;;;6.00;6.00;;;;;;;;5005870;28;9901;-75
2022/09/23 07:39:13;;;;;;;;;5.00;5.00;;;;;;;;5006705;28;10479;-75
2022/09/23 07:41:43;;;;;;;;;7.00;7.00;;;;;;;;5005581;28;9571;-75
2022/09/23 07:44:11;;;;;;;;;8.00;8.00;;;;;;;;5006591;28;9790;-74
2022/09/23 07:46:38;;;;;;;;;3.50;3.00;;;;;;;;5004076;28;9671;-76
2022/09/23 07:49:07;;;;;;;;;6.25;6.25;;;;;;;;5002081;28;9560;-75
2022/09/23 07:51:37;;;;;;;;;5.25;5.25;;;;;;;;5005347;28;9561;-75
2022/09/23 07:54:06;;;;;;;;;4.75;4.75;;;;;;;;5004443;28;9394;-75
2022/09/23 07:56:33;;;;;;;;;5.00;5.00;;;;;;;;5006972;28;9442;-74
2022/09/23 07:59:02;;;;;;;;;6.00;6.00;;;;;;;;5005564;28;9511;-75
2022/09/23 08:01:31;;;;;;;;;9.33;6.67;;;;;;;;5004781;28;9464;-73
2022/09/23 08:04:00;;;;;;;;;5.33;5.33;;;;;;;;5005201;28;10142;-74
2022/09/23 08:06:30;;;;;;;;;4.33;4.00;;;;;;;;5005942;28;9365;-76
2022/09/23 08:08:58;;;;;;;;;5.00;5.00;;;;;;;;5004628;28;9202;-75
2022/09/23 08:11:27;;;;;;;;;4.67;4.67;;;;;;;;5005169;28;9243;-74
2022/09/23 08:13:57;;;;;;;;;4.67;4.67;;;;;;;;5006561;28;9291;-74
2022/09/23 08:16:28;;;;;;;;;3.67;3.67;;;;;;;;5004618;28;9301;-74
2022/09/23 08:18:56;;;;;;;;;6.00;6.00;;;;;;;;5006106;28;9057;-74
2022/09/23 08:21:24;;;;;;;;;3.67;3.33;;;;;;;;5004415;28;9241;-75
2022/09/23 08:23:56;;;;;;;;;5.00;5.00;;;;;;;;5005715;28;8959;-75
2022/09/23 08:26:23;;;;;;;;;7.25;6.00;;;;;;;;5005517;28;9587;-75
2022/09/23 08:28:56;;;;;;;;;0.75;0.75;;;;;;;;5003950;28;8946;-76
2022/09/23 08:31:23;;;;;;;;;12.25;9.50;;;;;;;;5005095;28;8903;-76
2022/09/23 08:33:57;;;;;;;;;9.50;6.50;;;;;;;;5004433;28;8864;-76
2022/09/23 08:36:25;;;;;;;;;4.25;4.25;;;;;;;;5004350;28;8991;-75
2022/09/23 08:38:56;;;;;;;;;5.75;4.00;;;;;;;;5000241;28;8892;-75
2022/09/23 08:41:31;;;;;;;;;6.00;6.00;;;;;;;;5005177;28;10205;-75
2022/09/23 08:44:02;;;;;;;;;4.00;4.00;;;;;;;;5005478;28;8871;-75
2022/09/23 08:46:35;;;;;;;;;8.50;6.25;;;;;;;;5003937;28;8896;-75
2022/09/23 08:49:04;;;;;;;;;5.75;5.75;;;;;;;;5005606;28;8876;-74
2022/09/23 08:51:36;;;;;;;;;7.50;7.50;;;;;;;;5004725;28;8887;-74
2022/09/23 08:54:07;;;;;;;;;10.00;10.00;;;;;;;;5005229;28;8860;-74
2022/09/23 08:56:36;;;;;;;;;8.50;8.50;;;;;;;;5003864;28;8884;-77
2022/09/23 08:59:09;;;;;;;;;9.75;8.00;;;;;;;;5000913;28;8888;-76
2022/09/23 09:01:41;;;;;;;;;5.25;5.25;;;;;;;;5003187;28;8820;-76
2022/09/23 09:04:17;;;;;;;;;5.50;5.50;;;;;;;;4996747;28;9003;-78
2022/09/23 09:06:49;;;;;;;;;6.00;6.00;;;;;;;;5004817;28;9761;-76
2022/09/23 09:09:24;;;;;;;;;8.00;6.00;;;;;;;;5004111;28;8868;-77
2022/09/23 09:11:56;;;;;;;;;6.75;6.75;;;;;;;;5003267;28;8895;-76
2022/09/23 09:14:27;;;;;;;;;12.25;7.00;;;;;;;;5003747;28;9775;-75
2022/09/23 09:16:59;;;;;;;;;7.00;5.00;;;;;;;;5000501;28;8856;-78
2022/09/23 09:19:43;;;;;;;;;7.50;7.00;;;;;;;;5002416;28;8881;-79
2022/09/23 09:22:16;;;;;;;;;9.75;7.00;;;;;;;;5002949;28;8887;-74
2022/09/23 09:24:48;;;;;;;;;5.75;5.75;;;;;;;;5002673;28;8848;-76
2022/09/23 09:27:15;;;;;;;;;6.75;6.75;;;;;;;;5004475;28;8885;-75
2022/09/23 09:29:46;;;;;;;;;7.25;6.50;;;;;;;;5002145;28;9545;-74
2022/09/23 09:32:20;;;;;;;;;8.25;7.00;;;;;;;;5003864;28;8847;-75
2022/09/23 09:34:52;;;;;;;;;6.00;6.00;;;;;;;;5002901;28;9272;-75
2022/09/23 09:37:25;;;;;;;;;6.50;6.50;;;;;;;;5003519;28;8919;-74
2022/09/23 09:39:55;;;;;;;;;7.50;4.75;;;;;;;;5002611;28;9014;-75
2022/09/23 09:42:26;;;;;;;;;6.00;6.00;;;;;;;;5002352;28;8975;-75
2022/09/23 09:44:58;;;;;;;;;8.00;8.00;;;;;;;;5002947;28;8858;-76
2022/09/23 09:47:36;;;;;;;;;7.00;7.00;;;;;;;;5000894;28;8864;-75
2022/09/23 09:50:08;;;;;;;;;8.25;7.00;;;;;;;;5003769;28;8864;-75
2022/09/23 09:52:36;;;;;;;;;8.75;7.00;;;;;;;;4998619;28;9009;-75
2022/09/23 09:55:25;;;;;;;;;9.25;9.25;;;;;;;;5006233;28;8868;-74
2022/09/23 09:57:59;;;;;;;;;6.50;6.50;;;;;;;;5003298;28;8849;-74
2022/09/23 10:00:42;;;;;;;;;5.75;5.75;;;;;;;;5001823;28;8796;-73
2022/09/23 10:03:30;;;;;;;;;8.00;8.00;;;;;;;;5001463;28;8896;-75
2022/09/23 10:05:58;;;;;;;;;6.50;6.50;;;;;;;;5003270;28;8881;-73
2022/09/23 10:08:31;;;;;;;;;5.50;5.50;;;;;;;;5000227;28;8994;-73
2022/09/23 10:11:15;;;;;;;;;7.00;7.00;;;;;;;;5003885;28;8868;-73
2022/09/23 10:13:45;;;;;;;;;6.00;6.00;;;;;;;;4994839;28;8886;-74
2022/09/23 10:16:16;;;;;;;;;7.25;7.25;;;;;;;;5002942;28;8872;-74
2022/09/23 10:18:54;;;;;;;;;8.00;8.00;;;;;;;;5002541;28;8872;-75
2022/09/23 10:21:24;;;;;;;;;7.25;6.25;;;;;;;;5001629;28;8872;-74
2022/09/23 10:23:53;;;;;;;;;5.50;4.00;;;;;;;;5003325;28;9000;-74
2022/09/23 10:26:29;;;;;;;;;6.00;6.00;;;;;;;;5000390;28;8876;-73
2022/09/23 10:28:58;;;;;;;;;5.50;5.50;;;;;;;;5003518;28;9622;-76
2022/09/23 10:31:27;;;;;;;;;6.50;5.75;;;;;;;;5000886;28;8923;-75
2022/09/23 10:34:00;;;;;;;;;6.50;6.50;;;;;;;;5002839;28;9695;-76
2022/09/23 10:36:28;;;;;;;;;6.50;5.00;;;;;;;;5001458;28;8841;-77
2022/09/23 10:46:36;;;;;;;;;7.50;5.00;;;;;;;;5002164;28;8888;-76
2022/09/23 10:47:36;;;;;;;;;3.00;3.00;;;;;;;;5002003;28;8883;-76
2022/09/23 10:50:22;;;;;;;;;6.25;6.25;;;;;;;;5002218;28;8860;-76
2022/09/23 10:52:59;;;;;;;;;5.25;4.25;;;;;;;;4991210;28;8852;-74
2022/09/23 10:55:43;;;;;;;;;3.75;3.75;;;;;;;;5002359;28;8888;-77
2022/09/23 10:58:41;;;;;;;;;6.00;5.25;;;;;;;;5001622;28;9650;-76
2022/09/23 11:01:17;;;;;;;;;3.75;3.75;;;;;;;;4999672;28;8804;-75
2022/09/23 11:04:03;;;;;;;;;4.00;4.00;;;;;;;;5002873;28;8867;-75
2022/09/23 11:06:39;;;;;;;;;5.00;5.00;;;;;;;;5000403;28;8974;-78
2022/09/23 11:09:19;;;;;;;;;5.75;5.75;;;;;;;;5002857;28;9622;-76
2022/09/23 11:11:57;;;;;;;;;5.75;5.75;;;;;;;;5001848;28;8895;-75
2022/09/23 11:14:55;;;;;;;;;6.50;6.50;;;;;;;;4994803;28;8950;-74
2022/09/23 11:17:35;;;;;;;;;4.25;4.25;;;;;;;;5001216;28;8887;-75
2022/09/23 11:20:27;;;;;;;;;4.25;4.25;;;;;;;;4998363;28;8868;-75
2022/09/23 11:23:29;;;;;;;;;5.25;5.25;;;;;;;;4998960;28;10196;-75
2022/09/23 11:26:02;;;;;;;;;4.00;4.00;;;;;;;;4985488;28;8910;-75
2022/09/23 11:28:41;;;;;;;;;4.00;4.00;;;;;;;;5001337;28;8910;-75
2022/09/23 11:31:20;;;;;;;;;4.00;4.00;;;;;;;;5000539;28;8824;-74
2022/09/23 11:33:57;;;;;;;;;5.00;5.00;;;;;;;;4995484;28;8883;-76
2022/09/23 11:36:28;;;;;;;;;4.40;4.40;;;;;;;;5001479;28;9764;-74
2022/09/23 11:38:59;;;;;;;;;5.00;4.60;;;;;;;;5006860;28;8910;-75
2022/09/23 11:41:29;;;;;;;;;4.60;4.60;;;;;;;;5005834;28;8880;-75
2022/09/23 11:44:02;;;;;;;;;5.00;5.00;;;;;;;;5006049;28;8880;-76
2022/09/23 11:46:35;;;;;;;;;4.00;4.00;;;;;;;;5006697;28;8887;-75
2022/09/23 11:49:08;;;;;;;;;5.40;5.40;;;;;;;;5005673;28;8864;-76
2022/09/23 11:51:41;;;;;;;;;4.00;4.00;;;;;;;;5006845;28;8898;-75
2022/09/23 11:54:16;;;;;;;;;3.60;3.60;;;;;;;;5005538;28;8868;-75
2022/09/23 11:56:46;;;;;;;;;4.00;4.00;;;;;;;;5004976;28;8946;-75
2022/09/23 11:59:18;;;;;;;;;6.80;5.00;;;;;;;;5006082;28;8876;-75
2022/09/23 12:01:51;;;;;;;;;4.20;4.20;;;;;;;;5005038;28;8817;-75
2022/09/23 12:04:24;;;;;;;;;4.80;3.80;;;;;;;;5006938;28;8982;-75
2022/09/23 12:06:57;;;;;;;;;5.40;5.40;;;;;;;;5005648;28;9007;-75
2022/09/23 12:09:30;;;;;;;;;5.00;4.00;;;;;;;;5006987;28;8911;-76
2022/09/23 12:12:02;;;;;;;;;8.40;6.60;;;;;;;;5005342;28;8938;-76
2022/09/23 12:14:34;;;;;;;;;5.00;5.00;;;;;;;;5005665;28;9637;-75
2022/09/23 12:17:17;;;;;;;;;5.00;3.00;;;;;;;;5006566;28;8853;-75
2022/09/23 12:19:59;;;;;;;;;3.80;3.80;;;;;;;;5004545;28;8903;-75
2022/09/23 12:22:40;;;;;;;;;5.40;5.40;;;;;;;;5006143;28;8889;-75
2022/09/23 12:25:19;;;;;;;;;5.60;4.00;;;;;;;;5004353;28;8872;-76
2022/09/23 12:27:50;;;;;;;;;4.60;4.60;;;;;;;;5005252;28;8868;-75
2022/09/23 12:30:19;;;;;;;;;5.00;5.00;;;;;;;;5005541;28;9222;-76
2022/09/23 12:32:48;;;;;;;;;6.20;6.20;;;;;;;;5004831;28;8856;-75
2022/09/23 12:35:24;;;;;;;;;5.60;5.60;;;;;;;;5004693;28;8871;-75
2022/09/23 12:37:52;;;;;;;;;5.00;5.00;;;;;;;;5004732;28;9011;-75
2022/09/23 12:40:22;;;;;;;;;4.00;4.00;;;;;;;;5005404;28;8877;-75
2022/09/23 12:42:50;;;;;;;;;6.60;6.00;;;;;;;;5003773;28;8966;-76
2022/09/23 12:45:38;;;;;;;;;6.00;6.00;;;;;;;;5004284;28;8892;-76
2022/09/23 12:48:44;;;;;;;;;4.40;4.40;;;;;;;;5005840;28;9006;-74
2022/09/23 12:51:31;;;;;;;;;7.60;4.80;;;;;;;;4994258;28;8896;-76
2022/09/23 12:54:14;;;;;;;;;5.80;4.60;;;;;;;;5004644;28;8975;-75
2022/09/23 12:57:06;;;;;;;;;4.60;4.60;;;;;;;;5004190;28;8946;-76
2022/09/23 12:59:55;;;;;;;;;4.00;4.00;;;;;;;;4995758;28;8977;-76
2022/09/23 13:02:34;;;;;;;;;6.00;4.40;;;;;;;;5005159;28;8850;-76
2022/09/23 13:08:16;;;;;;;;;6.00;6.00;;;;;;;;5004203;28;8852;-76
2022/09/23 13:10:47;;;;;;;;;4.20;3.00;;;;;;;;4995153;28;9010;-76
2022/09/23 13:13:21;;;;;;;;;5.00;5.00;;;;;;;;5004234;28;8852;-76
2022/09/23 13:15:49;;;;;;;;;6.00;4.00;;;;;;;;5004417;28;8876;-75
2022/09/23 13:18:57;;;;;;;;;4.40;4.40;;;;;;;;5004779;28;8927;-75
2022/09/23 13:22:06;;;;;;;;;4.40;3.20;;;;;;;;4998173;28;8894;-76
2022/09/23 13:24:42;;;;;;;;;5.00;3.80;;;;;;;;4995969;28;8892;-76
2022/09/23 13:27:20;;;;;;;;;5.00;2.00;;;;;;;;5003932;28;8864;-76
2022/09/23 13:29:52;;;;;;;;;4.60;4.40;;;;;;;;5003337;28;8880;-75
2022/09/23 13:32:21;;;;;;;;;3.40;3.40;;;;;;;;5004572;28;8835;-76
2022/09/23 13:34:58;;;;;;;;;4.00;4.00;;;;;;;;5002271;28;8887;-75
2022/09/23 13:37:30;;;;;;;;;3.60;3.60;;;;;;;;5003826;28;8915;-75
2022/09/23 13:40:10;;;;;;;;;2.80;2.80;;;;;;;;5004875;28;9019;-75
2022/09/23 13:42:39;;;;;;;;;4.00;4.00;;;;;;;;5002269;28;8864;-76
2022/09/23 13:45:14;;;;;;;;;6.80;5.00;;;;;;;;5004221;28;8868;-76
2022/09/23 13:47:44;;;;;;;;;3.60;3.20;;;;;;;;5002968;28;9641;-76
2022/09/23 13:50:17;;;;;;;;;3.60;3.60;;;;;;;;5004312;28;8950;-76
2022/09/23 13:52:44;;;;;;;;;5.20;3.80;;;;;;;;5004595;28;8879;-76
2022/09/23 13:55:27;;;;;;;;;4.40;4.40;;;;;;;;5002964;28;8973;-76
2022/09/23 13:58:05;;;;;;;;;4.00;4.00;;;;;;;;4995578;28;9691;-76
2022/09/23 14:00:37;;;;;;;;;2.80;2.80;;;;;;;;5002184;28;8792;-76
2022/09/23 14:03:17;;;;;;;;;3.00;3.00;;;;;;;;5004126;28;8904;-76
2022/09/23 14:05:45;;;;;;;;;4.00;4.00;;;;;;;;4993799;28;9010;-76
2022/09/23 14:08:13;;;;;;;;;3.20;3.20;;;;;;;;5003288;28;8900;-76
2022/09/23 14:10:44;;;;;;;;;5.00;5.00;;;;;;;;5003090;28;8914;-76
2022/09/23 14:13:16;;;;;;;;;2.80;2.80;;;;;;;;5002995;28;9039;-75
2022/09/23 14:15:43;;;;;;;;;4.60;4.00;;;;;;;;5004117;28;8892;-75
2022/09/23 14:18:18;;;;;;;;;3.00;3.00;;;;;;;;5002694;28;8857;-76
2022/09/23 14:20:46;;;;;;;;;3.40;2.60;;;;;;;;5003647;28;8876;-74
2022/09/23 14:23:14;;;;;;;;;6.60;4.20;;;;;;;;5004108;28;8845;-75
2022/09/23 14:25:45;;;;;;;;;3.00;3.00;;;;;;;;5002730;28;9678;-75
2022/09/23 14:28:15;;;;;;;;;4.80;4.80;;;;;;;;5003708;28;8880;-76
2022/09/23 14:30:45;;;;;;;;;3.80;3.80;;;;;;;;5001496;28;8801;-75
2022/09/23 14:33:16;;;;;;;;;4.80;4.80;;;;;;;;5004007;28;8888;-76
2022/09/23 14:35:46;;;;;;;;;2.80;2.80;;;;;;;;5003099;28;9689;-75
2022/09/23 14:41:22;;;;;;;;;3.20;2.20;;;;;;;;5003415;28;8833;-75
2022/09/23 14:43:53;;;;;;;;;5.60;3.80;;;;;;;;5002742;28;8917;-75
2022/09/23 14:46:22;;;;;;;;;3.00;3.00;;;;;;;;4993393;28;8888;-76
2022/09/23 14:48:57;;;;;;;;;4.00;4.00;;;;;;;;5003105;28;8816;-76
2022/09/23 14:51:32;;;;;;;;;4.80;4.80;;;;;;;;5002909;28;8910;-75
2022/09/23 14:54:24;;;;;;;;;3.00;3.00;;;;;;;;5003772;28;8965;-76
2022/09/23 14:56:54;;;;;;;;;3.40;3.40;;;;;;;;5002442;28;8911;-74
2022/09/23 14:59:26;;;;;;;;;2.80;2.80;;;;;;;;5002932;28;8872;-77
2022/09/23 15:01:53;;;;;;;;;3.80;3.80;;;;;;;;5002432;28;8898;-75
2022/09/23 15:04:31;;;;;;;;;2.40;2.40;;;;;;;;5000139;28;9658;-74
2022/09/23 15:07:01;;;;;;;;;3.00;3.00;;;;;;;;5002707;28;8864;-78
2022/09/23 15:09:32;;;;;;;;;3.80;3.80;;;;;;;;5001371;28;8880;-76
2022/09/23 15:12:02;;;;;;;;;4.00;2.60;;;;;;;;5006617;28;9702;-74
2022/09/23 15:14:35;;;;;;;;;2.60;2.60;;;;;;;;5002277;28;8926;-76
2022/09/23 15:17:06;;;;;;;;;4.00;4.00;;;;;;;;5006127;28;8918;-78
2022/09/23 15:19:36;;;;;;;;;2.20;2.00;;;;;;;;5001881;28;8872;-77
2022/09/23 15:22:03;;;;;;;;;3.00;3.00;;;;;;;;5004988;28;8880;-75
2022/09/23 15:24:41;;;;;;;;;4.60;4.20;;;;;;;;5006316;28;8886;-74
2022/09/23 15:27:30;;;;;;;;;3.60;3.00;;;;;;;;5002287;28;8883;-75
2022/09/23 15:30:17;;;;;;;;;3.20;3.20;;;;;;;;5000957;28;8898;-74
2022/09/23 15:32:44;;;;;;;;;4.00;4.00;;;;;;;;5013493;28;8829;-74
2022/09/23 15:35:15;;;;;;;;;6.00;4.80;;;;;;;;5003510;28;8890;-75
2022/09/23 15:37:43;;;;;;;;;2.00;2.00;;;;;;;;5005450;28;8961;-77